createdAt,value
2018-09-16T00:00:02.673Z,14.56
2018-09-16T00:01:02.668Z,14.56
2018-09-16T00:02:02.732Z,14.56
2018-09-16T00:03:02.770Z,14.56
2018-09-16T00:04:02.640Z,14.56
2018-09-16T00:05:02.630Z,14.56
2018-09-16T00:06:02.614Z,14.63
2018-09-16T00:07:02.602Z,14.56
2018-09-16T00:08:02.678Z,14.63
2018-09-16T00:09:02.645Z,14.56
2018-09-16T00:10:02.800Z,14.56
2018-09-16T00:11:02.668Z,14.56
2018-09-16T00:12:02.830Z,14.56
2018-09-16T00:13:02.620Z,14.56
2018-09-16T00:14:02.859Z,14.56
2018-09-16T00:15:02.636Z,14.56
2018-09-16T00:16:03.680Z,14.56
2018-09-16T00:17:02.600Z,14.56
2018-09-16T00:18:02.590Z,14.56
2018-09-16T00:19:02.705Z,14.56
2018-09-16T00:20:02.648Z,14.56
2018-09-16T00:21:02.766Z,14.56
2018-09-16T00:22:02.618Z,14.5
2018-09-16T00:23:02.631Z,14.56
2018-09-16T00:24:02.828Z,14.5
2018-09-16T00:25:02.653Z,14.5
2018-09-16T00:26:02.700Z,14.5
2018-09-16T00:27:02.701Z,14.44
2018-09-16T00:28:02.637Z,14.5
2018-09-16T00:29:02.662Z,14.44
2018-09-16T00:30:02.675Z,14.5
2018-09-16T00:31:02.858Z,14.44
2018-09-16T00:32:02.827Z,14.44
2018-09-16T00:33:02.872Z,14.5
2018-09-16T00:34:02.651Z,14.38
2018-09-16T00:35:02.646Z,14.38
2018-09-16T00:36:02.669Z,14.38
2018-09-16T00:37:02.787Z,14.38
2018-09-16T00:38:02.656Z,14.38
2018-09-16T00:39:02.727Z,14.31
2018-09-16T00:40:02.674Z,14.38
2018-09-16T00:41:03.371Z,14.38
2018-09-16T00:42:02.626Z,14.31
2018-09-16T00:43:02.769Z,14.31
2018-09-16T00:44:02.697Z,14.25
2018-09-16T00:45:02.675Z,14.25
2018-09-16T00:46:02.673Z,14.19
2018-09-16T00:47:02.632Z,14.19
2018-09-16T00:48:02.621Z,14.13
2018-09-16T00:49:02.719Z,14.13
2018-09-16T00:50:02.657Z,14.06
2018-09-16T00:51:02.630Z,14.06
2018-09-16T00:52:02.686Z,14.06
2018-09-16T00:53:02.620Z,14
2018-09-16T00:54:02.626Z,14.06
2018-09-16T00:55:02.682Z,14.06
2018-09-16T00:56:02.688Z,14
2018-09-16T00:57:02.669Z,14
2018-09-16T00:58:02.634Z,14
2018-09-16T00:59:02.643Z,14.06
2018-09-16T01:00:02.750Z,14.06
2018-09-16T01:01:02.680Z,14.06
2018-09-16T01:02:02.795Z,14.06
2018-09-16T01:03:02.635Z,14.06
2018-09-16T01:04:02.716Z,14.06
2018-09-16T01:05:02.942Z,14.06
2018-09-16T01:06:02.656Z,14
2018-09-16T01:07:02.665Z,14
2018-09-16T01:08:02.693Z,14
2018-09-16T01:09:02.776Z,13.94
2018-09-16T01:10:02.735Z,13.94
2018-09-16T01:11:02.636Z,13.94
2018-09-16T01:12:02.657Z,13.94
2018-09-16T01:13:02.650Z,13.94
2018-09-16T01:14:02.767Z,13.88
2018-09-16T01:15:02.719Z,13.94
2018-09-16T01:16:02.732Z,13.94
2018-09-16T01:17:02.794Z,13.94
2018-09-16T01:18:02.669Z,13.94
2018-09-16T01:19:02.779Z,13.94
2018-09-16T01:20:02.778Z,14
2018-09-16T01:21:02.766Z,14
2018-09-16T01:22:02.659Z,14
2018-09-16T01:23:02.757Z,13.94
2018-09-16T01:24:02.780Z,14
2018-09-16T01:25:02.745Z,13.88
2018-09-16T01:26:02.723Z,13.94
2018-09-16T01:27:02.698Z,13.88
2018-09-16T01:28:03.158Z,13.88
2018-09-16T01:29:02.702Z,13.88
2018-09-16T01:30:02.650Z,13.81
2018-09-16T01:31:02.671Z,13.81
2018-09-16T01:32:02.866Z,13.81
2018-09-16T01:33:02.793Z,13.81
2018-09-16T01:34:02.714Z,13.81
2018-09-16T01:35:02.640Z,13.75
2018-09-16T01:36:02.676Z,13.75
2018-09-16T01:37:02.902Z,13.75
2018-09-16T01:38:02.805Z,13.75
2018-09-16T01:39:02.653Z,13.81
2018-09-16T01:40:02.689Z,13.75
2018-09-16T01:41:02.876Z,13.75
2018-09-16T01:42:02.700Z,13.69
2018-09-16T01:43:02.794Z,13.69
2018-09-16T01:44:02.645Z,13.69
2018-09-16T01:45:02.737Z,13.62
2018-09-16T01:46:03.202Z,13.69
2018-09-16T01:47:02.681Z,13.62
2018-09-16T01:48:02.724Z,13.62
2018-09-16T01:49:02.690Z,13.62
2018-09-16T01:50:02.695Z,13.62
2018-09-16T01:51:02.679Z,13.62
2018-09-16T01:52:02.659Z,13.62
2018-09-16T01:53:02.705Z,13.56
2018-09-16T01:54:02.748Z,13.56
2018-09-16T01:55:02.658Z,13.56
2018-09-16T01:56:02.854Z,13.56
2018-09-16T01:57:02.787Z,13.5
2018-09-16T01:58:02.697Z,13.44
2018-09-16T01:59:02.718Z,13.44
2018-09-16T02:00:02.866Z,13.38
2018-09-16T02:01:03.065Z,13.31
2018-09-16T02:02:02.707Z,13.25
2018-09-16T02:03:02.681Z,13.31
2018-09-16T02:04:02.738Z,13.25
2018-09-16T02:05:02.686Z,13.31
2018-09-16T02:06:02.684Z,13.31
2018-09-16T02:07:02.726Z,13.25
2018-09-16T02:08:02.681Z,13.25
2018-09-16T02:09:02.713Z,13.25
2018-09-16T02:10:02.683Z,13.25
2018-09-16T02:11:02.659Z,13.19
2018-09-16T02:12:02.715Z,13.25
2018-09-16T02:13:02.662Z,13.19
2018-09-16T02:14:02.675Z,13.13
2018-09-16T02:15:02.649Z,13.13
2018-09-16T02:16:02.656Z,13.06
2018-09-16T02:17:02.741Z,13.06
2018-09-16T02:18:02.733Z,12.94
2018-09-16T02:19:02.893Z,12.94
2018-09-16T02:20:02.684Z,12.94
2018-09-16T02:21:02.700Z,12.88
2018-09-16T02:22:02.752Z,12.81
2018-09-16T02:23:02.818Z,12.81
2018-09-16T02:24:02.817Z,12.75
2018-09-16T02:25:02.707Z,12.75
2018-09-16T02:26:03.033Z,12.63
2018-09-16T02:27:02.656Z,12.69
2018-09-16T02:28:02.814Z,12.63
2018-09-16T02:29:02.832Z,12.63
2018-09-16T02:30:02.715Z,12.63
2018-09-16T02:31:02.723Z,12.63
2018-09-16T02:32:02.704Z,12.56
2018-09-16T02:33:02.683Z,12.56
2018-09-16T02:34:02.708Z,12.56
2018-09-16T02:35:02.686Z,12.44
2018-09-16T02:36:02.718Z,12.44
2018-09-16T02:37:02.690Z,12.44
2018-09-16T02:38:02.746Z,12.37
2018-09-16T02:39:02.656Z,12.44
2018-09-16T02:40:02.937Z,12.37
2018-09-16T02:41:02.761Z,12.37
2018-09-16T02:42:03.277Z,12.37
2018-09-16T02:43:02.779Z,12.37
2018-09-16T02:44:02.759Z,12.37
2018-09-16T02:45:02.728Z,12.37
2018-09-16T02:46:02.728Z,12.37
2018-09-16T02:47:02.760Z,12.37
2018-09-16T02:48:02.821Z,12.44
2018-09-16T02:49:02.719Z,12.37
2018-09-16T02:50:02.678Z,12.37
2018-09-16T02:51:02.993Z,12.31
2018-09-16T02:52:02.698Z,12.31
2018-09-16T02:53:02.720Z,12.31
2018-09-16T02:54:02.687Z,12.25
2018-09-16T02:55:02.873Z,12.25
2018-09-16T02:56:02.843Z,12.25
2018-09-16T02:57:02.697Z,12.19
2018-09-16T02:58:03.019Z,12.25
2018-09-16T02:59:02.788Z,12.19
2018-09-16T03:00:02.724Z,12.19
2018-09-16T03:01:03.107Z,12.06
2018-09-16T03:02:02.692Z,12.13
2018-09-16T03:03:02.865Z,12.13
2018-09-16T03:04:02.770Z,12.13
2018-09-16T03:05:02.759Z,12.13
2018-09-16T03:06:02.691Z,12.13
2018-09-16T03:07:02.692Z,12.19
2018-09-16T03:08:02.705Z,12.13
2018-09-16T03:09:02.827Z,12.19
2018-09-16T03:10:02.788Z,12.19
2018-09-16T03:11:02.868Z,12.06
2018-09-16T03:12:02.700Z,12.06
2018-09-16T03:13:02.986Z,12
2018-09-16T03:14:02.707Z,12.06
2018-09-16T03:15:02.747Z,12.06
2018-09-16T03:16:02.744Z,12
2018-09-16T03:17:02.797Z,12
2018-09-16T03:18:02.911Z,11.94
2018-09-16T03:19:02.834Z,11.94
2018-09-16T03:20:02.906Z,11.88
2018-09-16T03:21:02.753Z,11.88
2018-09-16T03:22:02.703Z,11.88
2018-09-16T03:23:02.734Z,11.88
2018-09-16T03:24:02.751Z,11.88
2018-09-16T03:25:02.712Z,11.88
2018-09-16T03:26:02.803Z,11.88
2018-09-16T03:27:02.735Z,11.88
2018-09-16T03:28:02.876Z,11.88
2018-09-16T03:29:02.747Z,11.88
2018-09-16T03:30:03.270Z,11.88
2018-09-16T03:31:02.761Z,11.88
2018-09-16T03:32:02.741Z,11.81
2018-09-16T03:33:02.791Z,11.81
2018-09-16T03:34:02.723Z,11.81
2018-09-16T03:35:02.724Z,11.81
2018-09-16T03:36:02.879Z,11.81
2018-09-16T03:37:02.692Z,11.75
2018-09-16T03:38:03.233Z,11.81
2018-09-16T03:39:02.725Z,11.75
2018-09-16T03:40:02.788Z,11.75
2018-09-16T03:41:02.789Z,11.81
2018-09-16T03:42:02.883Z,11.81
2018-09-16T03:43:02.723Z,11.81
2018-09-16T03:44:02.789Z,11.81
2018-09-16T03:45:02.898Z,11.88
2018-09-16T03:46:02.996Z,11.81
2018-09-16T03:47:02.817Z,11.88
2018-09-16T03:48:02.804Z,11.88
2018-09-16T03:49:08.707Z,11.81
2018-09-16T03:50:02.790Z,11.81
2018-09-16T03:51:02.758Z,11.81
2018-09-16T03:52:02.794Z,11.75
2018-09-16T03:53:02.867Z,11.75
2018-09-16T03:54:02.905Z,11.75
2018-09-16T03:55:02.763Z,11.69
2018-09-16T03:56:02.841Z,11.63
2018-09-16T03:57:02.718Z,11.63
2018-09-16T03:58:02.716Z,11.63
2018-09-16T03:59:02.748Z,11.63
2018-09-16T04:00:03.140Z,11.63
2018-09-16T04:01:02.804Z,11.56
2018-09-16T04:02:02.797Z,11.63
2018-09-16T04:03:02.871Z,11.56
2018-09-16T04:04:02.924Z,11.63
2018-09-16T04:05:02.744Z,11.63
2018-09-16T04:06:02.714Z,11.56
2018-09-16T04:07:02.864Z,11.63
2018-09-16T04:08:02.899Z,11.56
2018-09-16T04:09:02.748Z,11.63
2018-09-16T04:10:02.733Z,11.56
2018-09-16T04:11:02.757Z,11.63
2018-09-16T04:12:02.732Z,11.63
2018-09-16T04:13:02.770Z,11.63
2018-09-16T04:14:04.111Z,11.56
2018-09-16T04:15:02.757Z,11.56
2018-09-16T04:16:02.808Z,11.63
2018-09-16T04:17:03.496Z,11.56
2018-09-16T04:18:02.723Z,11.56
2018-09-16T04:19:02.751Z,11.56
2018-09-16T04:20:02.782Z,11.5
2018-09-16T04:21:03.416Z,11.56
2018-09-16T04:22:02.810Z,11.56
2018-09-16T04:23:02.767Z,11.56
2018-09-16T04:24:02.758Z,11.56
2018-09-16T04:25:02.754Z,11.63
2018-09-16T04:26:02.820Z,11.63
2018-09-16T04:27:02.778Z,11.63
2018-09-16T04:28:03.056Z,11.63
2018-09-16T04:29:02.809Z,11.63
2018-09-16T04:30:02.757Z,11.69
2018-09-16T04:31:02.743Z,11.63
2018-09-16T04:32:03.311Z,11.69
2018-09-16T04:33:02.895Z,11.63
2018-09-16T04:34:02.757Z,11.69
2018-09-16T04:35:02.764Z,11.69
2018-09-16T04:36:02.798Z,11.69
2018-09-16T04:37:02.804Z,11.75
2018-09-16T04:38:02.837Z,11.75
2018-09-16T04:39:03.161Z,11.75
2018-09-16T04:40:02.827Z,11.75
2018-09-16T04:41:02.743Z,11.81
2018-09-16T04:42:02.782Z,11.88
2018-09-16T04:43:02.741Z,11.88
2018-09-16T04:44:02.888Z,11.88
2018-09-16T04:45:02.773Z,11.88
2018-09-16T04:46:02.735Z,11.88
2018-09-16T04:47:02.889Z,11.94
2018-09-16T04:48:02.794Z,11.88
2018-09-16T04:49:02.890Z,11.88
2018-09-16T04:50:03.913Z,11.88
2018-09-16T04:51:02.784Z,11.88
2018-09-16T04:52:02.761Z,11.88
2018-09-16T04:53:02.758Z,11.81
2018-09-16T04:54:02.823Z,11.81
2018-09-16T04:55:02.824Z,11.81
2018-09-16T04:56:02.867Z,11.81
2018-09-16T04:57:02.807Z,11.81
2018-09-16T04:58:02.742Z,11.88
2018-09-16T04:59:02.819Z,11.88
2018-09-16T05:00:02.778Z,11.81
2018-09-16T05:01:03.334Z,11.88
2018-09-16T05:02:02.814Z,11.88
2018-09-16T05:03:02.757Z,11.88
2018-09-16T05:04:03.097Z,11.88
2018-09-16T05:05:02.758Z,11.88
2018-09-16T05:06:02.765Z,11.88
2018-09-16T05:07:02.749Z,11.88
2018-09-16T05:08:02.898Z,11.94
2018-09-16T05:09:02.839Z,11.94
2018-09-16T05:10:02.919Z,12
2018-09-16T05:11:02.758Z,11.94
2018-09-16T05:12:02.858Z,11.94
2018-09-16T05:13:02.786Z,12
2018-09-16T05:14:03.251Z,12
2018-09-16T05:15:03.187Z,12.06
2018-09-16T05:16:02.909Z,12
2018-09-16T05:17:02.758Z,12.06
2018-09-16T05:18:03.511Z,12.06
2018-09-16T05:19:03.101Z,12.06
2018-09-16T05:20:03.107Z,12.06
2018-09-16T05:21:02.745Z,12.06
2018-09-16T05:22:02.919Z,11.94
2018-09-16T05:23:02.811Z,11.88
2018-09-16T05:24:03.146Z,11.81
2018-09-16T05:25:02.872Z,11.88
2018-09-16T05:26:02.846Z,11.81
2018-09-16T05:27:02.773Z,11.75
2018-09-16T05:28:02.871Z,11.75
2018-09-16T05:29:02.844Z,11.75
2018-09-16T05:30:02.871Z,11.69
2018-09-16T05:31:03.245Z,11.69
2018-09-16T05:32:02.824Z,11.69
2018-09-16T05:33:02.798Z,11.69
2018-09-16T05:34:02.791Z,11.69
2018-09-16T05:35:02.886Z,11.69
2018-09-16T05:36:02.850Z,11.69
2018-09-16T05:37:02.828Z,11.69
2018-09-16T05:38:02.826Z,11.69
2018-09-16T05:39:03.267Z,11.75
2018-09-16T05:40:02.804Z,11.69
2018-09-16T05:41:03.352Z,11.69
2018-09-16T05:42:02.772Z,11.69
2018-09-16T05:43:02.829Z,11.69
2018-09-16T05:44:02.781Z,11.69
2018-09-16T05:45:03.181Z,11.69
2018-09-16T05:46:02.777Z,11.69
2018-09-16T05:47:03.037Z,11.69
2018-09-16T05:48:03.404Z,11.75
2018-09-16T05:49:02.927Z,11.75
2018-09-16T05:50:02.832Z,11.75
2018-09-16T05:51:02.908Z,11.75
2018-09-16T05:52:03.115Z,11.75
2018-09-16T05:53:04.201Z,11.81
2018-09-16T05:54:03.036Z,11.81
2018-09-16T05:55:02.831Z,11.81
2018-09-16T05:56:02.937Z,11.75
2018-09-16T05:57:02.956Z,11.81
2018-09-16T05:58:02.781Z,11.81
2018-09-16T05:59:03.216Z,11.88
2018-09-16T06:00:02.801Z,11.88
2018-09-16T06:01:02.825Z,11.81
2018-09-16T06:02:02.854Z,11.88
2018-09-16T06:03:02.909Z,11.88
2018-09-16T06:04:03.052Z,11.88
2018-09-16T06:05:03.560Z,11.94
2018-09-16T06:06:02.883Z,11.94
2018-09-16T06:07:03.059Z,12
2018-09-16T06:08:03.123Z,11.94
2018-09-16T06:09:02.762Z,12
2018-09-16T06:10:02.805Z,12.06
2018-09-16T06:11:02.805Z,12.06
2018-09-16T06:12:03.154Z,12.06
2018-09-16T06:13:02.805Z,12.13
2018-09-16T06:14:03.480Z,12.19
2018-09-16T06:15:02.769Z,12.19
2018-09-16T06:16:02.813Z,12.25
2018-09-16T06:17:02.774Z,12.31
2018-09-16T06:18:03.236Z,12.37
2018-09-16T06:19:02.786Z,12.37
2018-09-16T06:20:02.795Z,12.44
2018-09-16T06:21:02.803Z,12.44
2018-09-16T06:22:02.896Z,12.5
2018-09-16T06:23:02.817Z,12.56
2018-09-16T06:24:02.774Z,12.56
2018-09-16T06:25:03.018Z,12.63
2018-09-16T06:26:02.876Z,12.63
2018-09-16T06:27:02.819Z,12.63
2018-09-16T06:28:02.789Z,12.69
2018-09-16T06:29:03.387Z,12.75
2018-09-16T06:30:03.314Z,12.75
2018-09-16T06:31:02.874Z,12.81
2018-09-16T06:32:03.194Z,12.81
2018-09-16T06:33:02.822Z,12.88
2018-09-16T06:34:02.815Z,12.94
2018-09-16T06:35:03.115Z,12.94
2018-09-16T06:36:03.448Z,13
2018-09-16T06:37:02.823Z,13.06
2018-09-16T06:38:02.984Z,13.06
2018-09-16T06:39:02.910Z,13.13
2018-09-16T06:40:02.834Z,13.13
2018-09-16T06:41:02.813Z,13.19
2018-09-16T06:42:03.269Z,13.19
2018-09-16T06:43:02.787Z,13.25
2018-09-16T06:44:02.780Z,13.31
2018-09-16T06:45:02.856Z,13.31
2018-09-16T06:46:02.812Z,13.38
2018-09-16T06:47:03.110Z,13.44
2018-09-16T06:48:02.838Z,13.44
2018-09-16T06:49:02.891Z,13.5
2018-09-16T06:50:02.807Z,13.56
2018-09-16T06:51:03.975Z,13.56
2018-09-16T06:52:03.283Z,13.56
2018-09-16T06:53:03.393Z,13.62
2018-09-16T06:54:02.846Z,13.69
2018-09-16T06:55:02.859Z,13.75
2018-09-16T06:56:02.778Z,13.75
2018-09-16T06:57:02.795Z,13.75
2018-09-16T06:58:03.262Z,13.81
2018-09-16T06:59:02.844Z,13.81
2018-09-16T07:00:02.815Z,13.88
2018-09-16T07:01:02.787Z,13.88
2018-09-16T07:02:02.794Z,14
2018-09-16T07:03:02.865Z,14
2018-09-16T07:04:02.900Z,14.06
2018-09-16T07:05:03.319Z,14.13
2018-09-16T07:06:02.823Z,14.13
2018-09-16T07:07:02.865Z,14.19
2018-09-16T07:08:02.786Z,14.25
2018-09-16T07:09:03.241Z,14.25
2018-09-16T07:10:03.047Z,14.31
2018-09-16T07:11:02.908Z,14.31
2018-09-16T07:12:03.059Z,14.44
2018-09-16T07:13:03.283Z,14.44
2018-09-16T07:14:02.859Z,14.5
2018-09-16T07:15:03.291Z,14.56
2018-09-16T07:16:02.891Z,14.56
2018-09-16T07:17:03.196Z,14.63
2018-09-16T07:18:02.928Z,14.69
2018-09-16T07:19:02.843Z,14.75
2018-09-16T07:20:03.331Z,14.81
2018-09-16T07:21:03.113Z,14.81
2018-09-16T07:22:02.839Z,14.87
2018-09-16T07:23:02.875Z,14.87
2018-09-16T07:24:03.031Z,14.94
2018-09-16T07:25:02.967Z,15
2018-09-16T07:26:02.793Z,15.06
2018-09-16T07:27:02.832Z,15.13
2018-09-16T07:28:02.890Z,15.13
2018-09-16T07:29:02.835Z,15.19
2018-09-16T07:30:02.920Z,15.19
2018-09-16T07:31:02.820Z,15.19
2018-09-16T07:32:03.288Z,15.31
2018-09-16T07:33:03.279Z,15.31
2018-09-16T07:34:03.585Z,15.38
2018-09-16T07:35:02.891Z,15.38
2018-09-16T07:36:02.826Z,15.38
2018-09-16T07:37:02.815Z,15.44
2018-09-16T07:38:03.658Z,15.44
2018-09-16T07:39:02.917Z,15.5
2018-09-16T07:40:02.851Z,15.5
2018-09-16T07:41:03.037Z,15.56
2018-09-16T07:42:03.673Z,15.5
2018-09-16T07:43:03.179Z,15.5
2018-09-16T07:44:02.927Z,15.56
2018-09-16T07:45:03.207Z,15.56
2018-09-16T07:46:03.187Z,15.63
2018-09-16T07:47:03.028Z,15.69
2018-09-16T07:48:02.838Z,15.69
2018-09-16T07:49:02.854Z,15.69
2018-09-16T07:50:03.112Z,15.75
2018-09-16T07:51:02.865Z,15.75
2018-09-16T07:52:02.869Z,15.81
2018-09-16T07:53:03.258Z,15.81
2018-09-16T07:54:03.139Z,15.81
2018-09-16T07:55:03.097Z,15.88
2018-09-16T07:56:02.899Z,15.88
2018-09-16T07:57:02.868Z,15.94
2018-09-16T07:58:02.862Z,15.94
2018-09-16T07:59:02.895Z,15.94
2018-09-16T08:00:02.908Z,15.94
2018-09-16T08:01:03.144Z,16
2018-09-16T08:02:03.107Z,16
2018-09-16T08:03:02.865Z,16
2018-09-16T08:04:02.829Z,16.06
2018-09-16T08:05:02.896Z,16.06
2018-09-16T08:06:03.131Z,16.06
2018-09-16T08:07:02.990Z,16.12
2018-09-16T08:08:02.951Z,16.12
2018-09-16T08:09:02.979Z,16.12
2018-09-16T08:10:02.853Z,16.19
2018-09-16T08:11:02.864Z,16.25
2018-09-16T08:12:02.860Z,16.25
2018-09-16T08:13:02.994Z,16.31
2018-09-16T08:14:02.942Z,16.37
2018-09-16T08:15:02.954Z,16.37
2018-09-16T08:16:02.986Z,16.44
2018-09-16T08:17:02.893Z,16.5
2018-09-16T08:18:02.908Z,16.44
2018-09-16T08:19:02.862Z,16.62
2018-09-16T08:20:02.922Z,16.56
2018-09-16T08:21:04.481Z,16.56
2018-09-16T08:22:02.862Z,16.62
2018-09-16T08:23:02.907Z,16.69
2018-09-16T08:24:02.852Z,16.75
2018-09-16T08:25:03.160Z,16.75
2018-09-16T08:26:02.925Z,16.81
2018-09-16T08:27:02.902Z,16.87
2018-09-16T08:28:02.863Z,16.87
2018-09-16T08:29:03.178Z,16.94
2018-09-16T08:30:02.943Z,16.94
2018-09-16T08:35:03.253Z,17.12
2018-09-16T08:36:03.063Z,17.19
2018-09-16T08:37:03.461Z,17.19
2018-09-16T08:38:03.853Z,17.19
2018-09-16T08:39:03.229Z,17.19
2018-09-16T08:40:03.418Z,17.19
2018-09-16T08:41:03.074Z,17.19
2018-09-16T08:42:03.130Z,17.25
2018-09-16T08:43:03.072Z,17.25
2018-09-16T08:44:03.276Z,17.31
2018-09-16T08:45:03.284Z,17.31
2018-09-16T08:46:03.100Z,17.37
2018-09-16T08:47:03.141Z,17.44
2018-09-16T08:48:03.121Z,17.44
2018-09-16T08:49:03.236Z,17.44
2018-09-16T08:50:03.378Z,17.5
2018-09-16T08:51:03.340Z,17.56
2018-09-16T08:52:03.544Z,17.62
2018-09-16T08:53:03.075Z,17.62
2018-09-16T08:54:03.070Z,17.69
2018-09-16T08:55:03.223Z,17.69
2018-09-16T08:56:03.208Z,17.75
2018-09-16T08:57:03.237Z,17.81
2018-09-16T08:58:03.998Z,17.87
2018-09-16T09:00:33.300Z,17.94
2018-09-16T09:00:40.868Z,17.94
2018-09-16T09:01:40.918Z,18
2018-09-16T09:02:40.788Z,18
2018-09-16T09:03:40.737Z,18.06
2018-09-16T09:04:40.817Z,18.12
2018-09-16T09:05:41.296Z,18.19
2018-09-16T09:06:40.786Z,18.31
2018-09-16T09:07:40.744Z,18.37
2018-09-16T09:11:40.484Z,18.56
2018-09-16T09:12:40.954Z,18.62
2018-09-16T09:13:40.847Z,18.62
2018-09-16T09:14:41.631Z,18.62
2018-09-16T09:15:41.392Z,18.69
2018-09-16T09:16:40.780Z,18.69
2018-09-16T09:17:40.940Z,18.69
2018-09-16T09:18:40.764Z,18.75
2018-09-16T09:19:40.795Z,18.75
2018-09-16T09:20:40.873Z,18.75
2018-09-16T09:21:40.882Z,18.81
2018-09-16T09:22:41.465Z,18.94
2018-09-16T09:23:40.770Z,18.94
2018-09-16T09:24:40.775Z,18.94
2018-09-16T09:25:40.750Z,18.94
2018-09-16T09:26:41.028Z,19
2018-09-16T09:27:40.828Z,19
2018-09-16T09:28:40.891Z,19.06
2018-09-16T09:29:40.773Z,19.06
2018-09-16T09:30:40.849Z,19.12
2018-09-16T09:33:41.124Z,19.19
2018-09-16T09:34:40.789Z,19.31
2018-09-16T09:35:41.234Z,19.25
2018-09-16T09:39:40.859Z,19.44
2018-09-16T09:40:40.925Z,19.44
2018-09-16T09:41:40.795Z,19.56
2018-09-16T09:42:41.048Z,19.56
2018-09-16T09:43:40.767Z,19.56
2018-09-16T09:44:41.078Z,19.62
2018-09-16T09:45:40.823Z,19.62
2018-09-16T09:46:41.104Z,19.62
2018-09-16T09:47:40.827Z,19.69
2018-09-16T09:48:40.895Z,19.69
2018-09-16T09:49:40.804Z,19.81
2018-09-16T09:50:40.775Z,19.81
2018-09-16T09:51:40.904Z,19.87
2018-09-16T09:52:40.767Z,19.94
2018-09-16T09:53:40.907Z,19.94
2018-09-16T09:54:40.839Z,20.06
2018-09-16T09:55:40.804Z,20.06
2018-09-16T09:56:40.757Z,20.06
2018-09-16T09:57:41.261Z,20.12
2018-09-16T09:58:41.443Z,20.12
2018-09-16T09:59:40.754Z,20.19
2018-09-16T10:00:40.803Z,20.25
2018-09-16T10:01:40.820Z,20.25
2018-09-16T10:02:40.870Z,20.25
2018-09-16T10:03:41.227Z,20.37
2018-09-16T10:04:40.903Z,20.37
2018-09-16T10:05:41.223Z,20.37
2018-09-16T10:06:40.859Z,20.44
2018-09-16T10:07:40.957Z,20.44
2018-09-16T10:08:40.860Z,20.5
2018-09-16T10:09:40.955Z,20.5
2018-09-16T10:10:41.131Z,20.56
2018-09-16T10:11:40.846Z,20.56
2018-09-16T10:12:41.168Z,20.62
2018-09-16T10:13:40.940Z,20.69
2018-09-16T10:14:40.720Z,20.69
2018-09-16T10:15:41.724Z,20.69
2018-09-16T10:16:40.856Z,20.75
2018-09-16T10:17:40.743Z,20.75
2018-09-16T10:18:40.799Z,20.88
2018-09-16T10:19:40.758Z,20.94
2018-09-16T10:20:40.795Z,20.94
2018-09-16T10:21:40.763Z,20.94
2018-09-16T10:22:41.381Z,20.94
2018-09-16T10:23:40.805Z,21
2018-09-16T10:24:40.813Z,21.06
2018-09-16T10:25:40.761Z,21
2018-09-16T10:26:40.729Z,21
2018-09-16T10:27:40.741Z,21.06
2018-09-16T10:28:40.877Z,21.06
2018-09-16T10:29:41.272Z,21.19
2018-09-16T10:30:40.785Z,21.31
2018-09-16T10:31:41.219Z,21.31
2018-09-16T10:32:40.743Z,21.37
2018-09-16T10:33:41.177Z,21.31
2018-09-16T10:34:40.923Z,21.37
2018-09-16T10:35:40.988Z,21.37
2018-09-16T10:36:40.889Z,21.44
2018-09-16T10:37:41.524Z,21.44
2018-09-16T10:38:47.971Z,21.5
2018-09-16T10:39:41.411Z,21.5
2018-09-16T10:40:40.857Z,21.56
2018-09-16T10:41:40.728Z,21.62
2018-09-16T10:42:40.803Z,21.62
2018-09-16T10:43:41.144Z,21.62
2018-09-16T10:44:50.043Z,21.69
2018-09-16T10:45:40.896Z,21.62
2018-09-16T10:46:40.761Z,21.69
2018-09-16T10:47:40.755Z,21.81
2018-09-16T10:48:40.764Z,21.87
2018-09-16T10:49:40.760Z,21.87
2018-09-16T10:50:40.729Z,21.94
2018-09-16T10:51:45.977Z,22
2018-09-16T10:52:41.003Z,22.06
2018-09-16T10:53:40.741Z,22.06
2018-09-16T10:54:40.703Z,22.06
2018-09-16T10:55:43.130Z,22.13
2018-09-16T10:56:40.734Z,22.19
2018-09-16T10:57:40.773Z,22.19
2018-09-16T10:58:40.734Z,22.25
2018-09-16T10:59:40.786Z,22.31
2018-09-16T11:00:40.749Z,22.31
2018-09-16T11:01:40.716Z,22.31
2018-09-16T11:02:40.738Z,22.37
2018-09-16T11:03:40.769Z,22.44
2018-09-16T11:04:41.111Z,22.44
2018-09-16T11:05:41.231Z,22.5
2018-09-16T11:06:41.312Z,22.5
2018-09-16T11:07:41.105Z,22.56
2018-09-16T11:08:40.757Z,22.56
2018-09-16T11:09:41.399Z,22.56
2018-09-16T11:10:40.939Z,22.62
2018-09-16T11:11:40.812Z,22.62
2018-09-16T11:12:41.537Z,22.62
2018-09-16T11:13:40.779Z,22.75
2018-09-16T11:14:41.199Z,22.75
2018-09-16T11:15:41.362Z,22.81
2018-09-16T11:16:40.906Z,22.81
2018-09-16T11:17:40.834Z,22.81
2018-09-16T11:18:40.923Z,22.87
2018-09-16T11:19:46.655Z,22.94
2018-09-16T11:20:43.790Z,22.87
2018-09-16T11:21:41.714Z,22.87
2018-09-16T11:22:40.848Z,22.87
2018-09-16T11:23:40.725Z,22.94
2018-09-16T11:24:40.766Z,23
2018-09-16T11:25:40.803Z,23
2018-09-16T11:26:40.928Z,23.06
2018-09-16T11:27:40.806Z,23.06
2018-09-16T11:28:40.783Z,23.06
2018-09-16T11:29:41.058Z,23.06
2018-09-16T11:30:40.778Z,23.06
2018-09-16T11:31:40.757Z,23.06
2018-09-16T11:32:40.735Z,23.12
2018-09-16T11:33:40.861Z,23.12
2018-09-16T11:34:40.776Z,23.19
2018-09-16T11:35:41.242Z,23.19
2018-09-16T11:36:40.910Z,23.25
2018-09-16T11:37:40.861Z,23.25
2018-09-16T11:38:40.766Z,23.31
2018-09-16T11:39:40.770Z,23.31
2018-09-16T11:40:40.754Z,23.31
2018-09-16T11:41:40.723Z,23.38
2018-09-16T11:42:40.875Z,23.38
2018-09-16T11:43:40.736Z,23.44
2018-09-16T11:44:40.917Z,23.5
2018-09-16T11:45:40.769Z,23.44
2018-09-16T11:46:40.932Z,23.5
2018-09-16T11:47:40.702Z,23.5
2018-09-16T11:48:40.909Z,23.5
2018-09-16T11:49:40.762Z,23.56
2018-09-16T11:50:40.911Z,23.62
2018-09-16T11:51:42.012Z,23.62
2018-09-16T11:52:41.120Z,23.62
2018-09-16T11:53:40.938Z,23.62
2018-09-16T11:54:41.130Z,23.62
2018-09-16T11:55:40.829Z,23.69
2018-09-16T11:56:41.043Z,23.62
2018-09-16T11:57:41.065Z,23.69
2018-09-16T11:58:40.847Z,23.69
2018-09-16T11:59:40.861Z,23.69
2018-09-16T12:00:41.657Z,23.75
2018-09-16T12:01:40.828Z,23.75
2018-09-16T12:02:41.159Z,23.69
2018-09-16T12:03:41.998Z,23.75
2018-09-16T12:04:41.184Z,23.69
2018-09-16T12:05:40.946Z,23.69
2018-09-16T12:06:41.199Z,23.75
2018-09-16T12:07:40.902Z,23.81
2018-09-16T12:08:41.817Z,23.87
2018-09-16T12:09:40.773Z,23.94
2018-09-16T12:10:40.815Z,23.94
2018-09-16T12:11:41.141Z,23.94
2018-09-16T12:12:40.823Z,23.94
2018-09-16T12:13:41.863Z,24
2018-09-16T12:14:40.726Z,24
2018-09-16T12:15:40.847Z,24
2018-09-16T12:16:41.026Z,24
2018-09-16T12:17:40.921Z,24
2018-09-16T12:18:40.756Z,24
2018-09-16T12:19:40.949Z,24.06
2018-09-16T12:20:40.898Z,24.12
2018-09-16T12:21:40.722Z,24.12
2018-09-16T12:22:41.849Z,24.12
2018-09-16T12:23:40.775Z,24.19
2018-09-16T12:24:40.915Z,24.12
2018-09-16T12:25:40.771Z,24.19
2018-09-16T12:26:40.842Z,24.19
2018-09-16T12:27:40.946Z,24.19
2018-09-16T12:28:40.880Z,24.12
2018-09-16T12:29:40.961Z,24.19
2018-09-16T12:30:40.888Z,24.19
2018-09-16T12:31:40.858Z,24.19
2018-09-16T12:32:40.865Z,24.12
2018-09-16T12:33:40.941Z,24.12
2018-09-16T12:34:40.745Z,24.19
2018-09-16T12:35:40.785Z,24.19
2018-09-16T12:36:40.902Z,24.25
2018-09-16T12:37:40.785Z,24.25
2018-09-16T12:38:41.019Z,24.25
2018-09-16T12:39:40.738Z,24.25
2018-09-16T12:40:40.725Z,24.25
2018-09-16T12:41:40.990Z,24.25
2018-09-16T12:42:40.769Z,24.25
2018-09-16T12:43:40.852Z,24.25
2018-09-16T12:44:40.866Z,24.25
2018-09-16T12:45:40.800Z,24.31
2018-09-16T12:46:40.744Z,24.25
2018-09-16T12:47:40.880Z,24.31
2018-09-16T12:48:40.885Z,24.31
2018-09-16T12:49:40.755Z,24.31
2018-09-16T12:50:40.899Z,24.31
2018-09-16T12:51:41.099Z,24.31
2018-09-16T12:52:40.727Z,24.25
2018-09-16T12:53:41.446Z,24.37
2018-09-16T12:54:41.127Z,24.44
2018-09-16T12:55:40.822Z,24.44
2018-09-16T12:56:40.833Z,24.5
2018-09-16T12:57:40.737Z,24.5
2018-09-16T12:58:40.767Z,24.5
2018-09-16T12:59:41.153Z,24.5
2018-09-16T13:00:40.715Z,24.56
2018-09-16T13:01:40.929Z,24.56
2018-09-16T13:02:41.999Z,24.63
2018-09-16T13:03:40.858Z,24.63
2018-09-16T13:04:40.763Z,24.63
2018-09-16T13:05:41.812Z,24.63
2018-09-16T13:06:41.216Z,24.63
2018-09-16T13:07:40.815Z,24.63
2018-09-16T13:08:41.245Z,24.75
2018-09-16T13:09:40.867Z,24.69